ADDS METAR Data INFO
IDs: Format: Raw Decoded Include TAF

Data at: 1529 UTC 18 Jun 2018

KLRU 181515Z AUTO 23003KT 10SM CLR 26/08 A3011 RMK AO2 T02640075
KLRU 181455Z AUTO 23003KT 10SM CLR 26/08 A3011 RMK AO2 T02570077
KLRU 181435Z AUTO 00000KT 10SM CLR 25/08 A3011 RMK AO2 T02520077
KLRU 181415Z AUTO 17004KT 10SM CLR 25/09 A3011 RMK AO2 T02460091
KLRU 181355Z AUTO 16004KT 10SM CLR 24/10 A3010 RMK AO2 T02360096
KLRU 181335Z AUTO 13005KT 10SM CLR 23/09 A3010 RMK AO2 T02290094
KLRU 181315Z AUTO 12005KT 10SM CLR 23/10 A3008 RMK AO2 T02270096
KLRU 181255Z AUTO 09003KT 10SM CLR 20/12 A3008 RMK AO2 T02040118
KLRU 181235Z AUTO 00000KT 10SM CLR 18/12 A3007 RMK AO2 T01810124
KLRU 181215Z AUTO 09003KT 10SM CLR 17/12 A3007 RMK AO2 T01730117
KLRU 181155Z AUTO 09004KT 10SM CLR 18/11 A3007 RMK AO2 T01760113 10225 20172
KLRU 181135Z AUTO 00000KT 10SM CLR 17/13 A3007 RMK AO2 T01720125
KLRU 181115Z AUTO 30003KT 10SM CLR 18/12 A3006 RMK AO2 T01770123
KLRU 181055Z AUTO 00000KT 10SM CLR 18/12 A3006 RMK AO2 T01800122
KLRU 181035Z AUTO 00000KT 10SM CLR 18/12 A3005 RMK AO2 T01800121
KLRU 181015Z AUTO 00000KT 10SM CLR 21/09 A3006 RMK AO2 T02050093
KLRU 180955Z AUTO 08003KT 10SM CLR 19/12 A3006 RMK AO2 T01910122
KLRU 180935Z AUTO 00000KT 10SM CLR 18/14 A3006 RMK AO2 T01830144
KLRU 180915Z AUTO 00000KT 10SM CLR 19/14 A3005 RMK AO2 T01890138
KLRU 180855Z AUTO 26003KT 10SM CLR 19/13 A3005 RMK AO2 T01900132
KLRU 180835Z AUTO 00000KT 10SM CLR 20/12 A3005 RMK AO2 T02000122
KLRU 180815Z AUTO 00000KT 10SM CLR 20/13 A3005 RMK AO2 T02020129
KLRU 180755Z AUTO 00000KT 10SM CLR 21/12 A3005 RMK AO2 T02080122
KLRU 180735Z AUTO 25003KT 10SM CLR 22/08 A3005 RMK AO2 T02170084
KLRU 180715Z AUTO 00000KT 10SM CLR 22/10 A3005 RMK AO2 T02190097
KLRU 180655Z AUTO 00000KT 10SM CLR 21/11 A3005 RMK AO2 T02130106
KLRU 180635Z AUTO 16003KT 10SM CLR 22/09 A3005 RMK AO2 T02180094
KLRU 180615Z AUTO 00000KT 10SM CLR 21/13 A3005 RMK AO2 T02080127
KLRU 180555Z AUTO 00000KT 10SM CLR 21/12 A3005 RMK AO2 T02090123 10300 20206
KLRU 180535Z AUTO 00000KT 10SM CLR 23/10 A3006 RMK AO2 T02280103
KLRU 180515Z AUTO 00000KT 10SM CLR 23/09 A3006 RMK AO2 T02330085
KLRU 180455Z AUTO 21003KT 10SM CLR 23/09 A3005 RMK AO2 T02300093
KLRU 180435Z AUTO 23003KT 10SM CLR 23/09 A3005 RMK AO2 T02340091
KLRU 180415Z AUTO 00000KT 10SM CLR 23/10 A3004 RMK AO2 T02330100
KLRU 180355Z AUTO 26005KT 10SM CLR 23/10 A3004 RMK AO2 T02340095
KLRU 180335Z AUTO 22003KT 10SM CLR 23/12 A3003 RMK AO2 T02340124
KLRU 180315Z AUTO 23003KT 10SM CLR 25/09 A3002 RMK AO2 T02450087
KLRU 180255Z AUTO 23003KT 10SM CLR 26/07 A3002 RMK AO2 T02550072
KLRU 180235Z AUTO 24004KT 10SM CLR 26/06 A3001 RMK AO2 T02640062
KLRU 180215Z AUTO 25007KT 10SM CLR 28/05 A3001 RMK AO2 T02750049
KLRU 180155Z AUTO 24006KT 10SM CLR 28/05 A3000 RMK AO2 T02810046
KLRU 180135Z AUTO 24010KT 10SM CLR 29/05 A3000 RMK AO2 T02850045
KLRU 180115Z AUTO 23007KT 10SM CLR 29/04 A3000 RMK AO2 T02890041
KLRU 180055Z AUTO 26010G16KT 10SM CLR 29/04 A3000 RMK AO2 T02920039
KLRU 180035Z AUTO 24010G18KT 10SM CLR 30/04 A3000 RMK AO2 T02950036
KLRU 180015Z AUTO 23012G16KT 10SM CLR 30/04 A2999 RMK AO2 T02990037
KLRU 172355Z AUTO 22008KT 10SM CLR 30/05 A3000 RMK AO2 T02960047 10298 20252
KLRU 172335Z AUTO 24007KT 10SM CLR 30/05 A3000 RMK AO2 T02950054
KLRU 172315Z AUTO 23010KT 10SM CLR 29/06 A3000 RMK AO2 T02930061
KLRU 172255Z AUTO 26010G15KT 10SM CLR 29/06 A3001 RMK AO2 T02900058
KLRU 172235Z AUTO 26010G16KT 10SM CLR 30/05 A3002 RMK AO2 T02970053
KLRU 172215Z AUTO 25013G16KT 10SM SCT085 29/05 A3002 RMK AO2 T02940051
KLRU 172155Z AUTO 20011G14KT 10SM CLR 30/06 A3003 RMK AO2 T02950055
KLRU 172135Z AUTO 21008G18KT 10SM CLR 29/05 A3003 RMK AO2 T02940046
KLRU 172115Z AUTO 20008KT 170V230 10SM CLR 29/05 A3004 RMK AO2 T02860049
KLRU 172055Z AUTO 23011KT 10SM SCT075 29/05 A3004 RMK AO2 T02850052
KLRU 172035Z AUTO 23014G19KT 10SM SCT075 28/05 A3004 RMK AO2 T02840046
KLRU 172015Z AUTO 25004KT 10SM CLR 29/07 A3005 RMK AO2 T02850066
KLRU 171955Z AUTO 19004G10KT 10SM CLR 28/06 A3005 RMK AO2 T02800058
KLRU 171935Z AUTO 23008KT 10SM CLR 28/07 A3006 RMK AO2 T02760065
KLRU 171915Z AUTO 23011G16KT 10SM SCT065 27/08 A3007 RMK AO2 T02710076
KLRU 171855Z AUTO 27007G16KT 10SM CLR 27/08 A3007 RMK AO2 T02690081
KLRU 171835Z AUTO 23010G16KT 10SM CLR 26/08 A3007 RMK AO2 T02630082
KLRU 171815Z AUTO 23012G17KT 10SM CLR 26/09 A3007 RMK AO2 T02560090
KLRU 171755Z AUTO 25009G14KT 10SM CLR 25/09 A3008 RMK AO2 T02520091 10252 20146
KLRU 171735Z AUTO 27007G14KT 10SM CLR 24/09 A3008 RMK AO2 T02420093
KLRU 171715Z AUTO 24007KT 10SM CLR 24/09 A3008 RMK AO2 T02400088
KLRU 171655Z AUTO 24009KT 10SM CLR 24/10 A3008 RMK AO2 T02410095
KLRU 171635Z AUTO 27010KT 10SM CLR 24/10 A3008 RMK AO2 T02360095
KLRU 171615Z AUTO 22009KT 10SM CLR 23/10 A3008 RMK AO2 T02320096
KLRU 171555Z AUTO 23010G15KT 10SM CLR 23/10 A3008 RMK AO2 T02300099
KLRU 171535Z AUTO 25010G17KT 10SM CLR 23/10 A3008 RMK AO2 T02250097
KLRU 171515Z AUTO 26010KT 10SM CLR 22/10 A3008 RMK AO2 T02200101
KLRU 171455Z AUTO 25009KT 10SM CLR 21/11 A3008 RMK AO2 T02080112
KLRU 171435Z AUTO 22006KT 10SM CLR 20/12 A3008 RMK AO2 T01960123
KLRU 171415Z AUTO 24006KT 10SM CLR 19/12 A3007 RMK AO2 T01850122
KLRU 171355Z AUTO 25008KT 10SM CLR 18/12 A3006 RMK AO2 T01770119
KLRU 171335Z AUTO 26007KT 10SM CLR 17/12 A3005 RMK AO2 T01700121
KLRU 171315Z AUTO 26007KT 10SM CLR 16/12 A3005 RMK AO2 T01610124
KLRU 171255Z AUTO 25006KT 10SM CLR 16/13 A3005 RMK AO2 T01550127
KLRU 171235Z AUTO 24006KT 10SM CLR 15/13 A3004 RMK AO2 T01500126
KLRU 171215Z AUTO 22004KT 10SM CLR 15/13 A3004 RMK AO2 T01470125
KLRU 171155Z AUTO 21006KT 10SM CLR 14/12 A3003 RMK AO2 70015 T01440122 10187 20140
KLRU 171135Z AUTO 12005KT 10SM CLR 14/12 A3003 RMK AO2 T01410124
KLRU 171115Z AUTO 21004KT 10SM CLR 15/12 A3002 RMK AO2 T01500120
KLRU 171055Z AUTO 23005KT 10SM CLR 15/13 A3001 RMK AO2 T01460125
KLRU 171035Z AUTO 25004KT 10SM CLR 15/12 A3001 RMK AO2 T01500120
KLRU 171015Z AUTO 25004KT 10SM CLR 15/12 A3000 RMK AO2 T01500121
KLRU 170955Z AUTO 25005KT 10SM CLR 15/12 A2999 RMK AO2 T01510120
KLRU 170935Z AUTO 24005KT 10SM CLR 16/12 A2999 RMK AO2 T01570120
KLRU 170915Z AUTO 21005KT 10SM CLR 16/12 A2999 RMK AO2 LTG DSNT N T01580120
KLRU 170855Z AUTO 24003KT 10SM CLR 16/12 A2999 RMK AO2 LTG DSNT N T01600116
KLRU 170835Z AUTO 20004KT 10SM CLR 16/11 A2999 RMK AO2 T01640113
KLRU 170815Z AUTO 28005KT 10SM CLR 17/11 A2999 RMK AO2 T01680107
KLRU 170755Z AUTO 27008KT 10SM CLR 18/11 A2999 RMK AO2 T01750105
KLRU 170735Z AUTO 27013G19KT 10SM CLR 18/11 A2999 RMK AO2 T01760105
KLRU 170715Z AUTO 27018G24KT 10SM CLR 18/10 A3000 RMK AO2 T01800103
KLRU 170655Z AUTO 27018G28KT 10SM CLR 18/11 A3000 RMK AO2 T01800108
KLRU 170635Z AUTO 28023G33KT 10SM CLR 18/13 A3001 RMK AO2 T01820130
KLRU 170615Z AUTO 26020G26KT 10SM CLR 19/13 A3001 RMK AO2 T01860133
KLRU 170555Z AUTO 25014G19KT 10SM CLR 19/13 A3000 RMK AO2 T01870127 10260 20187
KLRU 170535Z AUTO 25013KT 10SM CLR 19/13 A3001 RMK AO2 T01900126
KLRU 170515Z AUTO 25011KT 10SM CLR 19/12 A3000 RMK AO2 T01930124
KLRU 170455Z AUTO 25011KT 10SM CLR 20/12 A3000 RMK AO2 T01950124
KLRU 170435Z AUTO 25008KT 10SM CLR 20/13 A3000 RMK AO2 T01960133
KLRU 170415Z AUTO 26008KT 10SM CLR 20/13 A2999 RMK AO2 T02030128
KLRU 170355Z AUTO 26010G16KT 10SM CLR 21/13 A2999 RMK AO2 T02080126
KLRU 170335Z AUTO 26010KT 10SM CLR 21/13 A2998 RMK AO2 T02110129